Time;durP1;ratioP1;P1;durP2;ratioP2;P2;SDS_P1;SDS_P2;PMS_P1;PMS_P2;Temp;Humidity;BMP_temperature;BMP_pressure;BME280_temperature;BME280_humidity;BME280_pressure;Samples;Min_cycle;Max_cycle;Signal;HPM_P1;HPM_P2
2022/08/09 19:44:16;;;;;;;4.00;1.70;;;20.10;99.90;;;;;;5004248;27;20148;-71
2022/08/09 19:46:42;;;;;;;1.65;0.90;;;20.30;99.90;;;;;;4957591;23;20051;-72
2022/08/09 19:49:07;;;;;;;1.73;0.93;;;20.20;99.90;;;;;;4801493;28;158367;-73
2022/08/09 19:51:33;;;;;;;1.17;0.80;;;20.10;99.90;;;;;;4943020;28;20532;-72
2022/08/09 19:54:00;;;;;;;0.77;0.55;;;20.00;99.90;;;;;;4959070;28;20039;-74
2022/08/09 19:56:26;;;;;;;1.45;0.70;;;19.90;99.90;;;;;;4958380;28;20031;-72
2022/08/09 19:58:52;;;;;;;1.98;0.70;;;19.80;99.90;;;;;;4966941;28;20476;-73
2022/08/09 20:01:18;;;;;;;1.98;0.80;;;19.60;99.90;;;;;;4960435;28;20260;-73
2022/08/09 20:03:46;;;;;;;;;;;19.50;99.90;;;;;;4994138;28;20126;-75
2022/08/09 20:06:13;;;;;;;2.78;1.25;;;19.40;99.90;;;;;;4979026;28;19918;-72
2022/08/09 20:08:41;;;;;;;2.67;1.50;;;19.30;99.90;;;;;;4988970;28;20074;-72
2022/08/09 20:11:07;;;;;;;3.35;1.20;;;19.20;99.90;;;;;;4996171;28;20507;-77
2022/08/09 20:13:33;;;;;;;3.35;1.20;;;19.10;99.90;;;;;;4975424;28;20318;-72
2022/08/09 20:15:59;;;;;;;2.15;1.33;;;19.10;99.90;;;;;;4957353;28;20261;-75
2022/08/09 20:18:25;;;;;;;3.38;1.58;;;19.00;99.90;;;;;;4965484;28;20093;-72
2022/08/09 20:20:51;;;;;;;1.98;1.08;;;18.90;99.90;;;;;;4977135;28;20555;-72
2022/08/09 20:23:18;;;;;;;4.32;1.50;;;18.90;99.90;;;;;;4959552;28;20070;-72
2022/08/09 20:25:45;;;;;;;2.03;1.15;;;18.70;99.90;;;;;;4954830;28;20046;-74
2022/08/09 20:28:10;;;;;;;5.03;1.60;;;18.70;99.90;;;;;;4977999;28;20176;-73
2022/08/09 20:30:36;;;;;;;2.55;1.23;;;18.70;99.90;;;;;;4994632;28;21599;-74
2022/08/09 20:33:04;;;;;;;2.60;1.50;;;18.60;99.90;;;;;;4967407;28;20469;-73
2022/08/09 20:35:30;;;;;;;2.08;1.30;;;18.60;99.90;;;;;;4962818;28;20043;-72
2022/08/09 20:37:56;;;;;;;1.90;1.30;;;18.50;99.90;;;;;;4960589;28;20574;-73
2022/08/09 20:40:22;;;;;;;2.55;1.42;;;18.50;99.90;;;;;;4990856;28;20087;-72
2022/08/09 20:42:47;;;;;;;2.67;1.60;;;18.40;99.90;;;;;;4975849;28;20077;-73
2022/08/09 20:45:13;;;;;;;2.83;1.90;;;18.40;99.90;;;;;;4959508;28;20361;-73
2022/08/09 20:47:39;;;;;;;3.65;1.73;;;18.40;99.90;;;;;;4958884;28;20051;-73
2022/08/09 20:50:08;;;;;;;3.45;1.55;;;18.30;99.90;;;;;;4989197;28;20149;-73
2022/08/09 20:52:34;;;;;;;2.72;1.55;;;18.30;99.90;;;;;;4962144;28;20090;-73
2022/08/09 20:55:03;;;;;;;2.75;1.67;;;18.20;99.90;;;;;;4955317;28;20082;-74
2022/08/09 20:57:33;;;;;;;3.80;1.70;;;18.20;99.90;;;;;;4983742;28;20071;-74
2022/08/09 21:00:00;;;;;;;3.00;1.50;;;18.20;99.90;;;;;;4834757;29;20207;-73
2022/08/09 21:02:26;;;;;;;2.63;1.48;;;18.20;99.90;;;;;;4840202;28;20153;-74
2022/08/09 21:04:54;;;;;;;3.67;1.70;;;18.20;99.90;;;;;;4865245;28;20039;-74
2022/08/09 21:07:20;;;;;;;3.10;1.48;;;18.10;99.90;;;;;;4981267;28;20043;-74
2022/08/09 21:09:47;;;;;;;3.42;1.58;;;18.10;99.90;;;;;;4845649;28;20039;-74
2022/08/09 21:12:15;;;;;;;4.30;1.60;;;18.10;99.90;;;;;;4798014;28;20482;-74
2022/08/09 21:14:44;;;;;;;3.88;1.83;;;18.00;99.90;;;;;;4832346;28;20835;-74
2022/08/09 21:17:14;;;;;;;2.92;1.50;;;18.00;99.90;;;;;;4837616;28;20465;-75
2022/08/09 21:19:44;;;;;;;2.78;1.80;;;18.00;99.90;;;;;;4953297;28;20405;-74
2022/08/09 21:22:13;;;;;;;2.60;1.60;;;17.90;99.90;;;;;;4968328;28;20404;-73
2022/08/09 21:25:49;;;;;;;4.55;1.75;;;17.90;99.90;;;;;;4916462;28;20347;-74
2022/08/09 21:27:31;;;;;;;2.65;1.52;;;17.90;99.90;;;;;;4927761;28;20126;-73
2022/08/09 21:30:04;;;;;;;3.65;1.83;;;17.90;99.90;;;;;;4831299;28;20329;-74
2022/08/09 21:32:30;;;;;;;3.90;1.90;;;17.80;99.90;;;;;;4890778;28;20074;-74
2022/08/09 21:34:56;;;;;;;2.63;1.77;;;17.80;99.90;;;;;;4979598;28;20039;-74
2022/08/09 21:37:22;;;;;;;4.07;2.08;;;17.80;99.90;;;;;;4957970;28;20134;-74
2022/08/09 21:39:48;;;;;;;;;;;17.80;99.90;;;;;;4960890;28;20071;-73
2022/08/09 21:42:14;;;;;;;2.63;1.77;;;17.80;99.90;;;;;;4952078;28;19926;-74
2022/08/09 21:44:40;;;;;;;4.32;2.30;;;17.70;99.90;;;;;;4952171;28;20086;-74
2022/08/09 21:47:08;;;;;;;3.40;1.88;;;17.70;99.90;;;;;;4949665;28;20054;-73
2022/08/09 21:49:37;;;;;;;4.82;1.85;;;17.70;99.90;;;;;;4954893;28;20039;-73
2022/08/09 21:52:04;;;;;;;4.07;1.98;;;17.70;99.90;;;;;;4768187;28;20273;-74
2022/08/09 21:54:30;;;;;;;5.85;2.60;;;17.70;99.90;;;;;;4932325;28;20031;-74
2022/08/09 21:56:56;;;;;;;8.02;2.90;;;17.60;99.90;;;;;;4954332;28;20050;-74
2022/08/09 21:59:22;;;;;;;;;;;17.60;99.90;;;;;;4954135;28;20044;-73
2022/08/09 22:01:52;;;;;;;5.40;2.10;;;17.60;99.90;;;;;;4801081;28;20933;-74
2022/08/09 22:04:18;;;;;;;3.25;2.22;;;17.60;99.90;;;;;;4942354;28;20062;-73
2022/08/09 22:06:44;;;;;;;5.00;2.22;;;17.50;99.90;;;;;;4983015;28;20404;-74
2022/08/09 22:09:19;;;;;;;4.63;1.98;;;17.40;99.90;;;;;;4949559;28;20041;-76
2022/08/09 22:11:46;;;;;;;3.90;1.80;;;17.50;99.90;;;;;;4939461;28;20054;-75
2022/08/09 22:14:33;;;;;;;4.65;2.30;;;17.50;99.90;;;;;;4816773;28;20126;-75
2022/08/09 22:17:05;;;;;;;3.80;2.17;;;17.40;99.90;;;;;;4976272;28;20047;-73
2022/08/09 22:19:32;;;;;;;4.10;1.85;;;17.30;99.90;;;;;;4879326;28;20712;-75
2022/08/09 22:21:58;;;;;;;3.63;1.80;;;17.40;99.90;;;;;;4822058;29;20043;-73
2022/08/09 22:24:24;;;;;;;3.85;2.08;;;17.30;99.90;;;;;;4951026;28;20047;-73
2022/08/09 22:26:50;;;;;;;;;;;17.30;99.90;;;;;;4950119;28;20036;-73
2022/08/09 22:29:19;;;;;;;3.95;2.30;;;17.30;99.90;;;;;;4952866;28;20387;-73
2022/08/09 22:31:47;;;;;;;3.58;2.45;;;17.20;99.90;;;;;;4953877;28;20036;-74
2022/08/09 22:34:13;;;;;;;4.60;2.45;;;17.20;99.90;;;;;;4953302;28;20043;-74
2022/08/09 22:36:40;;;;;;;4.05;2.53;;;17.20;99.90;;;;;;4949821;28;20078;-74
2022/08/09 22:39:06;;;;;;;7.28;2.40;;;17.10;99.90;;;;;;4812474;28;20574;-72
2022/08/09 22:41:32;;;;;;;4.60;2.45;;;17.10;99.90;;;;;;4756674;28;20313;-73
2022/08/09 22:43:58;;;;;;;9.32;2.85;;;17.10;99.90;;;;;;4762191;28;20418;-73
2022/08/09 22:46:28;;;;;;;3.53;2.00;;;17.00;99.90;;;;;;4766383;28;20047;-72
2022/08/09 22:48:57;;;;;;;4.07;2.50;;;17.00;99.90;;;;;;4794251;28;20426;-71
2022/08/09 22:51:24;;;;;;;5.07;2.83;;;16.90;99.90;;;;;;4865912;28;20078;-73
2022/08/09 22:53:50;;;;;;;3.85;2.17;;;16.90;99.90;;;;;;4954387;28;20316;-72
2022/08/09 22:56:17;;;;;;;3.42;2.33;;;16.90;99.90;;;;;;4950639;28;20047;-73
2022/08/09 22:58:51;;;;;;;3.72;2.20;;;16.90;99.90;;;;;;4910939;28;20430;-74
2022/08/09 23:01:18;;;;;;;3.97;2.25;;;16.80;99.90;;;;;;4746785;28;20578;-72
2022/08/09 23:03:55;;;;;;;3.88;2.50;;;16.80;99.90;;;;;;4728432;28;20665;-74
2022/08/09 23:06:21;;;;;;;;;;;16.80;99.90;;;;;;4711898;29;20854;-72
2022/08/09 23:08:47;;;;;;;4.28;2.30;;;16.80;99.90;;;;;;4907334;28;20009;-72
2022/08/09 23:11:21;;;;;;;5.95;2.22;;;16.80;99.90;;;;;;4945035;28;20491;-72
2022/08/09 23:13:51;;;;;;;4.35;2.60;;;16.70;99.90;;;;;;4940528;28;20214;-72
2022/08/09 23:16:20;;;;;;;3.92;2.55;;;16.70;99.90;;;;;;4951256;28;20075;-73
2022/08/09 23:18:45;;;;;;;4.18;2.72;;;16.70;99.90;;;;;;4939856;28;20241;-72
2022/08/09 23:21:12;;;;;;;3.60;2.33;;;16.60;99.90;;;;;;4960789;28;20485;-72
2022/08/09 23:23:38;;;;;;;6.03;2.83;;;16.70;99.90;;;;;;4972121;28;20422;-72
2022/08/09 23:26:04;;;;;;;3.90;2.50;;;16.60;99.90;;;;;;4956868;28;20039;-77
2022/08/09 23:28:30;;;;;;;3.58;2.20;;;16.60;99.90;;;;;;4941275;28;20055;-72
2022/08/09 23:30:56;;;;;;;5.10;2.45;;;16.60;99.90;;;;;;4936170;28;20477;-73
2022/08/09 23:33:22;;;;;;;4.57;2.78;;;16.60;99.90;;;;;;4961936;28;20133;-73
2022/08/09 23:35:50;;;;;;;5.30;2.55;;;16.60;99.90;;;;;;4975525;28;20119;-72
2022/08/09 23:38:15;;;;;;;4.55;2.58;;;16.60;99.90;;;;;;4941306;28;20150;-72
2022/08/09 23:40:41;;;;;;;3.25;2.25;;;16.50;99.90;;;;;;4941725;28;20122;-73
2022/08/09 23:43:07;;;;;;;5.35;2.58;;;16.50;99.90;;;;;;4945594;28;20047;-72
2022/08/09 23:45:33;;;;;;;3.20;2.30;;;16.50;99.90;;;;;;4935108;28;20039;-72
2022/08/09 23:47:59;;;;;;;5.68;3.10;;;16.50;99.90;;;;;;4961881;28;20050;-72
2022/08/09 23:50:25;;;;;;;;;;;16.40;99.90;;;;;;4946339;28;20122;-72
2022/08/09 23:52:50;;;;;;;7.70;2.80;;;16.40;99.90;;;;;;4946510;28;20855;-72
2022/08/09 23:55:16;;;;;;;4.55;2.55;;;16.40;99.90;;;;;;4975472;28;20283;-70
2022/08/09 23:57:42;;;;;;;5.03;2.47;;;16.30;99.90;;;;;;4946858;29;20043;-71
